createdAt,value
2023-01-08T20:45:27.725Z,234.18
2023-01-08T20:47:57.407Z,237.27
2023-01-08T20:50:24.492Z,196.45
2023-01-08T20:52:51.639Z,152.50
2023-01-08T20:55:18.871Z,150.57
2023-01-08T20:57:48.250Z,120.15
2023-01-08T21:00:15.996Z,101.50
2023-01-08T21:02:43.844Z,88.72
2023-01-08T21:05:10.921Z,84.20
2023-01-08T21:07:37.931Z,73.03
2023-01-08T21:10:12.241Z,64.32
2023-01-08T21:12:39.331Z,63.42
2023-01-08T21:15:08.747Z,61.75
2023-01-08T21:17:36.037Z,59.58
2023-01-08T21:20:06.249Z,61.15
2023-01-08T21:22:35.967Z,59.22
2023-01-08T21:25:03.124Z,60.10
2023-01-08T21:27:30.223Z,59.00
2023-01-08T21:29:57.339Z,66.57
2023-01-08T21:32:24.603Z,62.22
2023-01-08T21:34:52.347Z,64.00
2023-01-08T21:37:21.940Z,56.75
2023-01-08T21:39:51.424Z,56.75
2023-01-08T21:42:37.269Z,53.13
2023-01-08T21:45:23.124Z,62.28
2023-01-08T21:47:50.229Z,68.05
2023-01-08T21:50:17.665Z,60.92
2023-01-08T21:53:06.282Z,59.70
2023-01-08T21:55:33.821Z,60.47
2023-01-08T21:58:01.238Z,63.70
2023-01-08T22:00:28.996Z,59.72
2023-01-08T22:02:56.236Z,61.17
2023-01-08T22:05:25.788Z,63.17
2023-01-08T22:07:53.152Z,63.10
2023-01-08T22:10:20.459Z,61.40
2023-01-08T22:12:47.696Z,66.63
2023-01-08T22:15:15.655Z,62.58
2023-01-08T22:17:42.918Z,60.35
2023-01-08T22:20:11.219Z,68.65
2023-01-08T22:22:38.785Z,64.57
2023-01-08T22:25:06.717Z,67.75
2023-01-08T22:27:33.818Z,66.85
2023-01-08T22:30:01.939Z,70.68
2023-01-08T22:32:30.689Z,68.82
2023-01-08T22:35:02.496Z,69.70
2023-01-08T22:37:29.567Z,69.38
2023-01-08T22:39:56.735Z,68.68
2023-01-08T22:42:25.588Z,76.20
2023-01-08T22:44:52.639Z,70.88
2023-01-08T22:47:19.699Z,75.20
2023-01-08T22:49:48.853Z,74.53
2023-01-08T22:52:18.497Z,69.95
2023-01-08T22:54:45.636Z,75.40
2023-01-08T22:57:12.743Z,67.47
2023-01-08T22:59:42.218Z,73.80
2023-01-08T23:02:09.272Z,68.70
2023-01-08T23:04:41.532Z,71.40
2023-01-08T23:09:35.612Z,69.10
2023-01-08T23:12:02.747Z,66.80
2023-01-08T23:14:32.333Z,72.28
2023-01-08T23:17:02.003Z,74.63
2023-01-08T23:19:29.048Z,71.85
2023-01-08T23:21:56.244Z,70.97
2023-01-08T23:24:23.357Z,72.43
2023-01-08T23:26:50.540Z,75.97
2023-01-08T23:29:17.665Z,69.68
2023-01-08T23:31:45.026Z,70.78
2023-01-08T23:34:12.252Z,71.50
2023-01-08T23:36:43.042Z,77.32
2023-01-08T23:39:21.838Z,70.35
2023-01-08T23:41:48.946Z,74.35
2023-01-08T23:44:16.269Z,69.82
2023-01-08T23:46:43.373Z,76.55
2023-01-08T23:49:10.919Z,78.22
2023-01-08T23:51:42.073Z,75.30
2023-01-08T23:54:11.199Z,75.50
2023-01-08T23:56:39.177Z,74.05
2023-01-08T23:59:06.498Z,73.90
